True Faith — V3ZS3 — position and weather

sailwx.info

Track history (hours):
 
Tides and Currents Weather Stations Pressure Air Temp Water Temp Dewpoint Dewpoint Depression Visibility Wind Speed Wind Dir Waves Ship Positions

True Faith

Last reported at 2017-Nov-15 12:21 UTC. Time now 2017-Nov-19 08:44 UTC.
Position N 37°22' E 025°55'.

Length 170 m; draft 9.9 m.

Type: Cargo ship. MMSI: 312548000.

Date/timePositionNaut miles runAvg speedWind from/ knotsBaromVisibWave heightAir tempDewpointWater temp
2017-Nov-15 12:21N 37°22' E 025°55'410.7
2017-Nov-15 12:00N 37°25' E 025°53'510.3
2017-Nov-15 11:30N 37°30' E 025°49'610.3
2017-Nov-15 10:53N 37°36' E 025°46'710.3
2017-Nov-15 10:11N 37°43' E 025°44'210.4
2017-Nov-15 10:00N 37°45' E 025°44'242 8.8
2017-Nov-14 06:32N 40°57' E 028°54'0 0.0
2017-Nov-14 06:30N 40°57' E 028°54'0 0.0
2017-Nov-14 03:16N 40°57' E 028°54'2 1.2
2017-Nov-14 02:02N 40°57' E 028°56'1 3.4
2017-Nov-14 01:44N 40°58' E 028°58'2 7.9
2017-Nov-14 01:30N 40°59' E 028°59'200 8.5
2017-Nov-13 01:57N 44°12' E 030°11'510.6
2017-Nov-13 01:29N 44°17' E 030°13'510.8
2017-Nov-13 00:59N 44°22' E 030°15'510.8
2017-Nov-13 00:30N 44°27' E 030°17'710.7
2017-Nov-12 23:50N 44°34' E 030°20'10410.0
2017-Nov-12 13:23N 46°15' E 030°54'410.1
2017-Nov-12 13:00N 46°19' E 030°55'510.1
2017-Nov-12 12:30N 46°24' E 030°56'510.1
2017-Nov-12 11:59N 46°29' E 030°56'16 8.1
2017-Nov-12 10:01N 46°35' E 031°17'010.0
2017-Nov-12 10:00N 46°35' E 031°18'8 9.3
2017-Nov-12 09:06N 46°36' E 031°30'1 9.2
2017-Nov-12 08:58N 46°35' E 031°31'4 8.6
2017-Nov-12 08:30N 46°35' E 031°37'5 9.2
2017-Nov-12 08:00N 46°36' E 031°43'5 9.2
2017-Nov-12 07:30N 46°36' E 031°50'5 9.1
2017-Nov-12 07:00N 46°39' E 031°55'5 9.2
2017-Nov-12 06:30N 46°43' E 031°56'4 8.6
2017-Nov-12 06:00N 46°47' E 031°53'4 7.5
2017-Nov-12 05:30N 46°50' E 031°56'2 3.6
2017-Nov-12 05:00N 46°51' E 031°59'0 0.2
2017-Nov-12 04:30N 46°51' E 031°59'0 0.0
2017-Nov-12 03:53N 46°51' E 031°59'0 0.0
2017-Nov-12 03:29N 46°51' E 031°59'0 0.0
2017-Nov-12 02:59N 46°51' E 031°59'0 0.0
2017-Nov-12 02:26N 46°51' E 031°59'0 0.0
2017-Nov-12 01:56N 46°51' E 031°59'0 0.0
2017-Nov-12 01:29N 46°51' E 031°59'0 0.0
2017-Nov-12 00:59N 46°51' E 031°59'0 0.0
2017-Nov-12 00:29N 46°51' E 031°59'0 0.0
2017-Nov-11 23:59N 46°51' E 031°59'0 0.0
2017-Nov-11 23:29N 46°51' E 031°59'0 0.0
2017-Nov-11 22:59N 46°51' E 031°59'0 0.0
2017-Nov-11 22:29N 46°51' E 031°59'0 0.0
2017-Nov-11 21:59N 46°51' E 031°59'0 0.0
2017-Nov-11 21:29N 46°51' E 031°59'0 0.0
2017-Nov-11 20:59N 46°51' E 031°59'0 0.0
2017-Nov-11 20:29N 46°51' E 031°59'0 0.0
2017-Nov-11 19:59N 46°51' E 031°59'0 0.0
2017-Nov-11 19:29N 46°51' E 031°59'0 0.0
2017-Nov-11 18:59N 46°51' E 031°59'0 0.0
2017-Nov-11 18:29N 46°51' E 031°59'0 0.0
2017-Nov-11 17:59N 46°51' E 031°59'0 0.0
2017-Nov-11 17:29N 46°51' E 031°59'0 0.0
2017-Nov-11 16:59N 46°51' E 031°59'0 0.0
2017-Nov-11 16:23N 46°51' E 031°59'0 0.0
2017-Nov-11 15:59N 46°51' E 031°59'0 0.0
2017-Nov-11 15:29N 46°51' E 031°59'0 0.0
2017-Nov-11 14:59N 46°51' E 031°59'0 0.0
2017-Nov-11 14:29N 46°51' E 031°59'0 0.0
2017-Nov-11 13:59N 46°51' E 031°59'0 0.0
2017-Nov-11 13:29N 46°51' E 031°59'0 0.0
2017-Nov-11 12:59N 46°51' E 031°59'0 0.0
2017-Nov-11 12:29N 46°51' E 031°59'0 0.0
2017-Nov-11 11:59N 46°51' E 031°59'0 0.0
2017-Nov-11 11:29N 46°51' E 031°59'0 0.0
2017-Nov-11 10:59N 46°51' E 031°59'0 0.0
2017-Nov-11 10:29N 46°51' E 031°59'0 0.0
2017-Nov-11 09:59N 46°51' E 031°59'0 0.0
2017-Nov-11 09:29N 46°51' E 031°59'0 0.0
2017-Nov-11 08:59N 46°51' E 031°59'0 0.0
2017-Nov-11 08:26N 46°51' E 031°59'0 0.0
2017-Nov-11 07:56N 46°51' E 031°59'0 0.0
2017-Nov-11 07:29N 46°51' E 031°59'0 0.0
2017-Nov-11 06:59N 46°51' E 031°59'0 0.0
2017-Nov-11 06:29N 46°51' E 031°59'0 0.0
2017-Nov-11 05:59N 46°51' E 031°59'0 0.0
2017-Nov-11 05:29N 46°51' E 031°59'0 0.0
2017-Nov-11 04:59N 46°51' E 031°59'0 0.0
2017-Nov-11 04:29N 46°51' E 031°59'0 0.0
2017-Nov-11 03:59N 46°51' E 031°59'0 0.0
2017-Nov-11 03:29N 46°51' E 031°59'0 0.0
2017-Nov-11 02:59N 46°51' E 031°59'0 0.0
2017-Nov-11 02:26N 46°51' E 031°59'0 0.0
2017-Nov-11 01:53N 46°51' E 031°59'0 0.0
2017-Nov-11 01:26N 46°51' E 031°59'0 0.0
2017-Nov-11 00:59N 46°51' E 031°59'0 0.0
2017-Nov-11 00:29N 46°51' E 031°59'0 0.0
2017-Nov-10 23:59N 46°51' E 031°59'0 0.0
2017-Nov-10 23:29N 46°51' E 031°59'0 0.0
2017-Nov-10 22:59N 46°51' E 031°59'0 0.0
2017-Nov-10 22:29N 46°51' E 031°59'0 0.0
2017-Nov-10 21:59N 46°51' E 031°59'0 0.0
2017-Nov-10 21:29N 46°51' E 031°59'0 0.0
2017-Nov-10 20:59N 46°51' E 031°59'0 0.0
2017-Nov-10 20:29N 46°51' E 031°59'0 0.0
2017-Nov-10 19:59N 46°51' E 031°59'0 0.0
2017-Nov-10 19:29N 46°51' E 031°59'0 0.0
2017-Nov-10 18:59N 46°51' E 031°59'0 0.0
2017-Nov-10 18:29N 46°51' E 031°59'0 0.0
2017-Nov-10 17:59N 46°51' E 031°59'0 0.0
2017-Nov-10 17:29N 46°51' E 031°59'0 0.0
2017-Nov-10 16:59N 46°51' E 031°59'0 0.0
2017-Nov-10 16:29N 46°51' E 031°59'0 0.0
2017-Nov-10 15:59N 46°51' E 031°59'0 0.0
2017-Nov-10 15:29N 46°51' E 031°59'0 0.0
2017-Nov-10 14:59N 46°51' E 031°59'0 0.0
2017-Nov-10 14:29N 46°51' E 031°59'0 0.0
2017-Nov-10 13:59N 46°51' E 031°59'0 0.0
2017-Nov-10 13:29N 46°51' E 031°59'0 0.0
2017-Nov-10 12:59N 46°51' E 031°59'0 0.0
2017-Nov-10 12:29N 46°51' E 031°59'0 0.0
2017-Nov-10 11:59N 46°51' E 031°59'0 0.0
2017-Nov-10 11:29N 46°51' E 031°59'0 0.0
2017-Nov-10 10:59N 46°51' E 031°59'0 0.0
2017-Nov-10 10:23N 46°51' E 031°59'0 0.0
2017-Nov-10 09:59N 46°51' E 031°59'0 0.0
2017-Nov-10 09:29N 46°51' E 031°59'0 0.0
2017-Nov-10 08:59N 46°51' E 031°59'0 0.0
2017-Nov-10 08:29N 46°51' E 031°59'0 0.0
2017-Nov-10 07:56N 46°51' E 031°59'0 0.0
2017-Nov-10 07:29N 46°51' E 031°59'0 0.0
2017-Nov-10 06:59N 46°51' E 031°59'0 0.0
2017-Nov-10 06:29N 46°51' E 031°59'0 0.0
2017-Nov-10 05:59N 46°51' E 031°59'0 0.0
2017-Nov-10 05:29N 46°51' E 031°59'0 0.0
2017-Nov-10 04:50N 46°51' E 031°59'0 0.0
2017-Nov-10 04:29N 46°51' E 031°59'0 0.0
2017-Nov-10 03:59N 46°51' E 031°59'0 0.0
2017-Nov-10 03:29N 46°51' E 031°59'0 0.0
2017-Nov-10 02:59N 46°51' E 031°59'0 0.0
2017-Nov-10 02:29N 46°51' E 031°59'0 0.0
2017-Nov-10 01:59N 46°51' E 031°59'0 0.0
2017-Nov-10 01:29N 46°51' E 031°59'0 0.0
2017-Nov-10 00:59N 46°51' E 031°59'0 0.0
2017-Nov-10 00:29N 46°51' E 031°59'0 0.0
2017-Nov-09 23:59N 46°51' E 031°59'0 0.0
2017-Nov-09 23:29N 46°51' E 031°59'0 0.0
2017-Nov-09 22:59N 46°51' E 031°59'0 0.0
2017-Nov-09 22:29N 46°51' E 031°59'0 0.0
2017-Nov-09 21:59N 46°51' E 031°59'0 0.0
2017-Nov-09 21:29N 46°51' E 031°59'0 0.0
2017-Nov-09 20:59N 46°51' E 031°59'0 0.0
2017-Nov-09 20:30N 46°51' E 031°59'1 2.2
2017-Nov-09 20:00N 46°51' E 031°57'1 2.3
2017-Nov-09 19:30N 46°50' E 031°56'1 2.6
2017-Nov-09 19:00N 46°51' E 031°57'3 7.0
2017-Nov-09 18:30N 46°54' E 032°00'2 5.0
2017-Nov-09 18:00N 46°56' E 031°60'1 1.8
2017-Nov-09 17:30N 46°57' E 031°59'0 0.1
2017-Nov-09 16:58N 46°57' E 031°59'0 0.0
2017-Nov-09 16:28N 46°57' E 031°59'0 0.0
2017-Nov-09 15:58N 46°57' E 031°59'0 0.0
2017-Nov-09 15:28N 46°57' E 031°59'0 0.0
2017-Nov-09 14:58N 46°57' E 031°59'0 0.0
2017-Nov-09 14:28N 46°57' E 031°59'0 0.0
2017-Nov-09 13:58N 46°57' E 031°59'0 0.0
2017-Nov-09 13:28N 46°57' E 031°59'0 0.0
2017-Nov-09 12:58N 46°57' E 031°59'0 0.0
2017-Nov-09 12:28N 46°57' E 031°59'0 0.0
2017-Nov-09 11:58N 46°57' E 031°59'0 0.0
2017-Nov-09 11:28N 46°57' E 031°59'0 0.0
2017-Nov-09 10:55N 46°57' E 031°59'0 0.0
2017-Nov-09 10:28N 46°57' E 031°59'0 0.0
2017-Nov-09 09:58N 46°57' E 031°59'0 0.0
2017-Nov-09 09:28N 46°57' E 031°59'0 0.0
2017-Nov-09 08:58N 46°57' E 031°59'0 0.0
2017-Nov-09 08:28N 46°57' E 031°59'0 0.0
2017-Nov-09 07:58N 46°57' E 031°59'0 0.0
2017-Nov-09 07:28N 46°57' E 031°59'0 0.0
2017-Nov-09 06:58N 46°57' E 031°59'0 0.0
2017-Nov-09 06:28N 46°57' E 031°59'0 0.0
2017-Nov-09 05:58N 46°57' E 031°59'0 0.0
2017-Nov-09 05:28N 46°57' E 031°59'0 0.0
2017-Nov-09 04:58N 46°57' E 031°59'0 0.0
2017-Nov-09 04:28N 46°57' E 031°59'0 0.0
2017-Nov-09 03:58N 46°57' E 031°59'0 0.0
2017-Nov-09 03:28N 46°57' E 031°59'0 0.0
2017-Nov-09 02:58N 46°57' E 031°59'0 0.0
2017-Nov-09 02:28N 46°57' E 031°59'0 0.0
2017-Nov-09 01:58N 46°57' E 031°59'0 0.0
2017-Nov-09 01:28N 46°57' E 031°59'0 0.0
2017-Nov-09 00:55N 46°57' E 031°59'0 0.0
2017-Nov-09 00:28N 46°57' E 031°59'0 0.0
2017-Nov-08 23:58N 46°57' E 031°59'0 0.0
2017-Nov-08 23:28N 46°57' E 031°59'0 0.0
2017-Nov-08 22:58N 46°57' E 031°59'0 0.0
2017-Nov-08 22:28N 46°57' E 031°59'0 0.0
2017-Nov-08 21:58N 46°57' E 031°59'0 0.0
2017-Nov-08 21:28N 46°57' E 031°59'0 0.0
2017-Nov-08 20:58N 46°57' E 031°59'0 0.0
2017-Nov-08 20:28N 46°57' E 031°59'0 0.0
2017-Nov-08 19:58N 46°57' E 031°59'0 0.0
2017-Nov-08 19:28N 46°57' E 031°59'0 0.0
2017-Nov-08 18:58N 46°57' E 031°59'0 0.0
2017-Nov-08 18:28N 46°57' E 031°59'0 0.0
2017-Nov-08 17:58N 46°57' E 031°59'0 0.0
2017-Nov-08 17:28N 46°57' E 031°59'0 0.0
2017-Nov-08 16:58N 46°57' E 031°59'0 0.0
2017-Nov-08 16:28N 46°57' E 031°59'0 0.0
2017-Nov-08 15:58N 46°57' E 031°59'0 0.0
2017-Nov-08 15:28N 46°57' E 031°59'0 0.0
2017-Nov-08 14:58N 46°57' E 031°59'0 0.0
2017-Nov-08 14:28N 46°57' E 031°59'0 0.0
2017-Nov-08 13:58N 46°57' E 031°59'0 0.0
2017-Nov-08 13:28N 46°57' E 031°59'0 0.0
2017-Nov-08 12:58N 46°57' E 031°59'0 0.0
2017-Nov-08 12:28N 46°57' E 031°59'0 0.0
2017-Nov-08 11:58N 46°57' E 031°59'0 0.0
2017-Nov-08 11:28N 46°57' E 031°59'0 0.0
2017-Nov-08 10:58N 46°57' E 031°59'0 0.0
2017-Nov-08 10:28N 46°57' E 031°59'0 0.0
2017-Nov-08 09:58N 46°57' E 031°59'0 0.0
2017-Nov-08 09:28N 46°57' E 031°59'0 0.0
2017-Nov-08 08:58N 46°57' E 031°59'0 0.0
2017-Nov-08 08:28N 46°57' E 031°59'0 0.0
2017-Nov-08 07:55N 46°57' E 031°59'0 0.0
2017-Nov-08 07:28N 46°57' E 031°59'0 0.0
2017-Nov-08 06:58N 46°57' E 031°59'0 0.0
2017-Nov-08 06:28N 46°57' E 031°59'0 0.0
2017-Nov-08 05:58N 46°57' E 031°59'0 0.0
2017-Nov-08 05:28N 46°57' E 031°59'0 0.0
2017-Nov-08 04:58N 46°57' E 031°59'0 0.0
2017-Nov-08 04:28N 46°57' E 031°59'0 0.0
2017-Nov-08 03:58N 46°57' E 031°59'0 0.0
2017-Nov-08 03:28N 46°57' E 031°59'0 0.0
2017-Nov-08 02:58N 46°57' E 031°59'0 0.0
2017-Nov-08 02:28N 46°57' E 031°59'0 0.0
2017-Nov-08 01:58N 46°57' E 031°59'0 0.0
2017-Nov-08 01:28N 46°57' E 031°59'0 0.0
2017-Nov-08 00:58N 46°57' E 031°59'0 0.0
2017-Nov-08 00:28N 46°57' E 031°59'0 0.0
2017-Nov-07 23:58N 46°57' E 031°59'0 0.0
2017-Nov-07 23:28N 46°57' E 031°59'0 0.0
2017-Nov-07 22:58N 46°57' E 031°59'0 0.0
2017-Nov-07 22:28N 46°57' E 031°59'0 0.0
2017-Nov-07 21:58N 46°57' E 031°59'0 0.0
2017-Nov-07 21:28N 46°57' E 031°59'0 0.0
2017-Nov-07 20:58N 46°57' E 031°59'0 0.0
2017-Nov-07 20:28N 46°57' E 031°59'0 0.0
2017-Nov-07 19:58N 46°57' E 031°59'0 0.0
2017-Nov-07 19:28N 46°57' E 031°59'0 0.0
2017-Nov-07 18:58N 46°57' E 031°59'0 0.0
2017-Nov-07 18:28N 46°57' E 031°59'0 0.0
2017-Nov-07 17:58N 46°57' E 031°59'0 0.0
2017-Nov-07 17:28N 46°57' E 031°59'0 0.0
2017-Nov-07 16:55N 46°57' E 031°59'0 0.0
2017-Nov-07 16:28N 46°57' E 031°59'0 0.0
2017-Nov-07 15:58N 46°57' E 031°59'0 0.0
2017-Nov-07 15:25N 46°57' E 031°59'0 0.0
2017-Nov-07 14:58N 46°57' E 031°59'0 0.0
2017-Nov-07 14:28N 46°57' E 031°59'0 0.0
2017-Nov-07 13:58N 46°57' E 031°59'0 0.0
2017-Nov-07 13:28N 46°57' E 031°59'0 0.0
2017-Nov-07 12:58N 46°57' E 031°59'0 0.0
2017-Nov-07 12:28N 46°57' E 031°59'0 0.0
2017-Nov-07 11:58N 46°57' E 031°59'0 0.0
2017-Nov-07 11:22N 46°57' E 031°59'0 0.0
2017-Nov-07 10:58N 46°57' E 031°59'0 0.0
2017-Nov-07 10:28N 46°57' E 031°59'0 0.0
2017-Nov-07 09:58N 46°57' E 031°59'0 0.0
2017-Nov-07 09:28N 46°57' E 031°59'0 0.0
2017-Nov-07 08:58N 46°57' E 031°59'0 0.0
2017-Nov-07 08:28N 46°57' E 031°59'0 0.0
2017-Nov-07 07:58N 46°57' E 031°59'0 0.0
2017-Nov-07 07:28N 46°57' E 031°59'0 0.0
2017-Nov-07 06:58N 46°57' E 031°59'0 0.0
2017-Nov-07 06:28N 46°57' E 031°59'0 0.0
2017-Nov-07 05:58N 46°57' E 031°59'0 0.0
2017-Nov-07 05:28N 46°57' E 031°59'0 0.0
2017-Nov-07 04:58N 46°57' E 031°59'0 0.0
2017-Nov-07 04:28N 46°57' E 031°59'0 0.0
2017-Nov-07 03:58N 46°57' E 031°59'0 0.0
2017-Nov-07 03:28N 46°57' E 031°59'0 0.0
2017-Nov-07 02:58N 46°57' E 031°59'0 0.0
2017-Nov-07 02:28N 46°57' E 031°59'0 0.0
2017-Nov-07 01:58N 46°57' E 031°59'0 0.0
2017-Nov-07 01:28N 46°57' E 031°59'0 0.0
2017-Nov-07 00:58N 46°57' E 031°59'0 0.0
2017-Nov-07 00:28N 46°57' E 031°59'0 0.0
2017-Nov-06 23:58N 46°57' E 031°59'0 0.0
2017-Nov-06 23:28N 46°57' E 031°59'0 0.0
2017-Nov-06 22:58N 46°57' E 031°59'0 0.0
2017-Nov-06 22:28N 46°57' E 031°59'0 0.0
2017-Nov-06 21:58N 46°57' E 031°59'0 0.0
2017-Nov-06 21:28N 46°57' E 031°59'0 0.0
2017-Nov-06 20:58N 46°57' E 031°59'0 0.0
2017-Nov-06 20:28N 46°57' E 031°59'0 0.0
2017-Nov-06 02:28N 46°57' E 031°59'0 0.0
2017-Nov-06 01:58N 46°57' E 031°59'0 0.0
2017-Nov-06 01:28N 46°57' E 031°59'0 0.0
2017-Nov-06 00:58N 46°57' E 031°59'0 0.0
2017-Nov-06 00:28N 46°57' E 031°59'0 0.0
2017-Nov-05 23:58N 46°57' E 031°59'0 0.0
2017-Nov-05 23:28N 46°57' E 031°59'0 0.0
2017-Nov-05 22:58N 46°57' E 031°59'0 0.0
2017-Nov-05 22:28N 46°57' E 031°59'0 0.0
2017-Nov-05 21:58N 46°57' E 031°59'0 0.0
2017-Nov-05 21:28N 46°57' E 031°59'0 0.0
2017-Nov-05 20:58N 46°57' E 031°59'0 0.0
2017-Nov-05 20:28N 46°57' E 031°59'0 0.0
2017-Nov-05 19:58N 46°57' E 031°59'0 0.0
2017-Nov-05 19:28N 46°57' E 031°59'0 0.0
2017-Nov-05 18:58N 46°57' E 031°59'0 0.0
2017-Nov-05 18:28N 46°57' E 031°59'0 0.0
2017-Nov-05 17:58N 46°57' E 031°59'0 0.0
2017-Nov-05 17:28N 46°57' E 031°59'0 0.0
2017-Nov-05 16:58N 46°57' E 031°59'0 0.0
2017-Nov-05 16:28N 46°57' E 031°59'0 0.0
2017-Nov-05 15:58N 46°57' E 031°59'0 0.0
2017-Nov-05 15:28N 46°57' E 031°59'0 0.0
2017-Nov-05 14:58N 46°57' E 031°59'0 0.0
2017-Nov-05 14:28N 46°57' E 031°59'0 0.0
2017-Nov-05 13:58N 46°57' E 031°59'0 0.0
2017-Nov-05 13:25N 46°57' E 031°59'0 0.0
2017-Nov-05 12:28N 46°57' E 031°59'  
Track history (hours):
 
Tides and Currents Weather Stations Pressure Air Temp Water Temp Dewpoint Dewpoint Depression Visibility Wind Speed Wind Dir Waves Ship Positions

True Faith

Last reported at 2017-Nov-15 12:21 UTC. Time now 2017-Nov-19 08:44 UTC.
Position N 37°22' E 025°55'.

Length 170 m; draft 9.9 m.

Type: Cargo ship. MMSI: 312548000.

Date/timePositionNaut miles runAvg speedWind from/ knotsBaromVisibWave heightAir tempDewpointWater temp
2017-Nov-15 12:21N 37°22' E 025°55'410.7
2017-Nov-15 12:00N 37°25' E 025°53'510.3
2017-Nov-15 11:30N 37°30' E 025°49'610.3
2017-Nov-15 10:53N 37°36' E 025°46'710.3
2017-Nov-15 10:11N 37°43' E 025°44'210.4
2017-Nov-15 10:00N 37°45' E 025°44'242 8.8
2017-Nov-14 06:32N 40°57' E 028°54'0 0.0
2017-Nov-14 06:30N 40°57' E 028°54'0 0.0
2017-Nov-14 03:16N 40°57' E 028°54'2 1.2
2017-Nov-14 02:02N 40°57' E 028°56'1 3.4
2017-Nov-14 01:44N 40°58' E 028°58'2 7.9
2017-Nov-14 01:30N 40°59' E 028°59'200 8.5
2017-Nov-13 01:57N 44°12' E 030°11'510.6
2017-Nov-13 01:29N 44°17' E 030°13'510.8
2017-Nov-13 00:59N 44°22' E 030°15'510.8
2017-Nov-13 00:30N 44°27' E 030°17'710.7
2017-Nov-12 23:50N 44°34' E 030°20'10410.0
2017-Nov-12 13:23N 46°15' E 030°54'410.1
2017-Nov-12 13:00N 46°19' E 030°55'510.1
2017-Nov-12 12:30N 46°24' E 030°56'510.1
2017-Nov-12 11:59N 46°29' E 030°56'16 8.1
2017-Nov-12 10:01N 46°35' E 031°17'010.0
2017-Nov-12 10:00N 46°35' E 031°18'8 9.3
2017-Nov-12 09:06N 46°36' E 031°30'1 9.2
2017-Nov-12 08:58N 46°35' E 031°31'4 8.6
2017-Nov-12 08:30N 46°35' E 031°37'5 9.2
2017-Nov-12 08:00N 46°36' E 031°43'5 9.2
2017-Nov-12 07:30N 46°36' E 031°50'5 9.1
2017-Nov-12 07:00N 46°39' E 031°55'5 9.2
2017-Nov-12 06:30N 46°43' E 031°56'4 8.6
2017-Nov-12 06:00N 46°47' E 031°53'4 7.5
2017-Nov-12 05:30N 46°50' E 031°56'2 3.6
2017-Nov-12 05:00N 46°51' E 031°59'0 0.2
2017-Nov-12 04:30N 46°51' E 031°59'0 0.0
2017-Nov-12 03:53N 46°51' E 031°59'0 0.0
2017-Nov-12 03:29N 46°51' E 031°59'0 0.0
2017-Nov-12 02:59N 46°51' E 031°59'0 0.0
2017-Nov-12 02:26N 46°51' E 031°59'0 0.0
2017-Nov-12 01:56N 46°51' E 031°59'0 0.0
2017-Nov-12 01:29N 46°51' E 031°59'0 0.0
2017-Nov-12 00:59N 46°51' E 031°59'0 0.0
2017-Nov-12 00:29N 46°51' E 031°59'0 0.0
2017-Nov-11 23:59N 46°51' E 031°59'0 0.0
2017-Nov-11 23:29N 46°51' E 031°59'0 0.0
2017-Nov-11 22:59N 46°51' E 031°59'0 0.0
2017-Nov-11 22:29N 46°51' E 031°59'0 0.0
2017-Nov-11 21:59N 46°51' E 031°59'0 0.0
2017-Nov-11 21:29N 46°51' E 031°59'0 0.0
2017-Nov-11 20:59N 46°51' E 031°59'0 0.0
2017-Nov-11 20:29N 46°51' E 031°59'0 0.0
2017-Nov-11 19:59N 46°51' E 031°59'0 0.0
2017-Nov-11 19:29N 46°51' E 031°59'0 0.0
2017-Nov-11 18:59N 46°51' E 031°59'0 0.0
2017-Nov-11 18:29N 46°51' E 031°59'0 0.0
2017-Nov-11 17:59N 46°51' E 031°59'0 0.0
2017-Nov-11 17:29N 46°51' E 031°59'0 0.0
2017-Nov-11 16:59N 46°51' E 031°59'0 0.0
2017-Nov-11 16:23N 46°51' E 031°59'0 0.0
2017-Nov-11 15:59N 46°51' E 031°59'0 0.0
2017-Nov-11 15:29N 46°51' E 031°59'0 0.0
2017-Nov-11 14:59N 46°51' E 031°59'0 0.0
2017-Nov-11 14:29N 46°51' E 031°59'0 0.0
2017-Nov-11 13:59N 46°51' E 031°59'0 0.0
2017-Nov-11 13:29N 46°51' E 031°59'0 0.0
2017-Nov-11 12:59N 46°51' E 031°59'0 0.0
2017-Nov-11 12:29N 46°51' E 031°59'0 0.0
2017-Nov-11 11:59N 46°51' E 031°59'0 0.0
2017-Nov-11 11:29N 46°51' E 031°59'0 0.0
2017-Nov-11 10:59N 46°51' E 031°59'0 0.0
2017-Nov-11 10:29N 46°51' E 031°59'0 0.0
2017-Nov-11 09:59N 46°51' E 031°59'0 0.0
2017-Nov-11 09:29N 46°51' E 031°59'0 0.0
2017-Nov-11 08:59N 46°51' E 031°59'0 0.0
2017-Nov-11 08:26N 46°51' E 031°59'0 0.0
2017-Nov-11 07:56N 46°51' E 031°59'0 0.0
2017-Nov-11 07:29N 46°51' E 031°59'0 0.0
2017-Nov-11 06:59N 46°51' E 031°59'0 0.0
2017-Nov-11 06:29N 46°51' E 031°59'0 0.0
2017-Nov-11 05:59N 46°51' E 031°59'0 0.0
2017-Nov-11 05:29N 46°51' E 031°59'0 0.0
2017-Nov-11 04:59N 46°51' E 031°59'0 0.0
2017-Nov-11 04:29N 46°51' E 031°59'0 0.0
2017-Nov-11 03:59N 46°51' E 031°59'0 0.0
2017-Nov-11 03:29N 46°51' E 031°59'0 0.0
2017-Nov-11 02:59N 46°51' E 031°59'0 0.0
2017-Nov-11 02:26N 46°51' E 031°59'0 0.0
2017-Nov-11 01:53N 46°51' E 031°59'0 0.0
2017-Nov-11 01:26N 46°51' E 031°59'0 0.0
2017-Nov-11 00:59N 46°51' E 031°59'0 0.0
2017-Nov-11 00:29N 46°51' E 031°59'0 0.0
2017-Nov-10 23:59N 46°51' E 031°59'0 0.0
2017-Nov-10 23:29N 46°51' E 031°59'0 0.0
2017-Nov-10 22:59N 46°51' E 031°59'0 0.0
2017-Nov-10 22:29N 46°51' E 031°59'0 0.0
2017-Nov-10 21:59N 46°51' E 031°59'0 0.0
2017-Nov-10 21:29N 46°51' E 031°59'0 0.0
2017-Nov-10 20:59N 46°51' E 031°59'0 0.0
2017-Nov-10 20:29N 46°51' E 031°59'0 0.0
2017-Nov-10 19:59N 46°51' E 031°59'0 0.0
2017-Nov-10 19:29N 46°51' E 031°59'0 0.0
2017-Nov-10 18:59N 46°51' E 031°59'0 0.0
2017-Nov-10 18:29N 46°51' E 031°59'0 0.0
2017-Nov-10 17:59N 46°51' E 031°59'0 0.0
2017-Nov-10 17:29N 46°51' E 031°59'0 0.0
2017-Nov-10 16:59N 46°51' E 031°59'0 0.0
2017-Nov-10 16:29N 46°51' E 031°59'0 0.0
2017-Nov-10 15:59N 46°51' E 031°59'0 0.0
2017-Nov-10 15:29N 46°51' E 031°59'0 0.0
2017-Nov-10 14:59N 46°51' E 031°59'0 0.0
2017-Nov-10 14:29N 46°51' E 031°59'0 0.0
2017-Nov-10 13:59N 46°51' E 031°59'0 0.0
2017-Nov-10 13:29N 46°51' E 031°59'0 0.0
2017-Nov-10 12:59N 46°51' E 031°59'0 0.0
2017-Nov-10 12:29N 46°51' E 031°59'0 0.0
2017-Nov-10 11:59N 46°51' E 031°59'0 0.0
2017-Nov-10 11:29N 46°51' E 031°59'0 0.0
2017-Nov-10 10:59N 46°51' E 031°59'0 0.0
2017-Nov-10 10:23N 46°51' E 031°59'0 0.0
2017-Nov-10 09:59N 46°51' E 031°59'0 0.0
2017-Nov-10 09:29N 46°51' E 031°59'0 0.0
2017-Nov-10 08:59N 46°51' E 031°59'0 0.0
2017-Nov-10 08:29N 46°51' E 031°59'0 0.0
2017-Nov-10 07:56N 46°51' E 031°59'0 0.0
2017-Nov-10 07:29N 46°51' E 031°59'0 0.0
2017-Nov-10 06:59N 46°51' E 031°59'0 0.0
2017-Nov-10 06:29N 46°51' E 031°59'0 0.0
2017-Nov-10 05:59N 46°51' E 031°59'0 0.0
2017-Nov-10 05:29N 46°51' E 031°59'0 0.0
2017-Nov-10 04:50N 46°51' E 031°59'0 0.0
2017-Nov-10 04:29N 46°51' E 031°59'0 0.0
2017-Nov-10 03:59N 46°51' E 031°59'0 0.0
2017-Nov-10 03:29N 46°51' E 031°59'0 0.0
2017-Nov-10 02:59N 46°51' E 031°59'0 0.0
2017-Nov-10 02:29N 46°51' E 031°59'0 0.0
2017-Nov-10 01:59N 46°51' E 031°59'0 0.0
2017-Nov-10 01:29N 46°51' E 031°59'0 0.0
2017-Nov-10 00:59N 46°51' E 031°59'0 0.0
2017-Nov-10 00:29N 46°51' E 031°59'0 0.0
2017-Nov-09 23:59N 46°51' E 031°59'0 0.0
2017-Nov-09 23:29N 46°51' E 031°59'0 0.0
2017-Nov-09 22:59N 46°51' E 031°59'0 0.0
2017-Nov-09 22:29N 46°51' E 031°59'0 0.0
2017-Nov-09 21:59N 46°51' E 031°59'0 0.0
2017-Nov-09 21:29N 46°51' E 031°59'0 0.0
2017-Nov-09 20:59N 46°51' E 031°59'0 0.0
2017-Nov-09 20:30N 46°51' E 031°59'1 2.2
2017-Nov-09 20:00N 46°51' E 031°57'1 2.3
2017-Nov-09 19:30N 46°50' E 031°56'1 2.6
2017-Nov-09 19:00N 46°51' E 031°57'3 7.0
2017-Nov-09 18:30N 46°54' E 032°00'2 5.0
2017-Nov-09 18:00N 46°56' E 031°60'1 1.8
2017-Nov-09 17:30N 46°57' E 031°59'0 0.1
2017-Nov-09 16:58N 46°57' E 031°59'0 0.0
2017-Nov-09 16:28N 46°57' E 031°59'0 0.0
2017-Nov-09 15:58N 46°57' E 031°59'0 0.0
2017-Nov-09 15:28N 46°57' E 031°59'0 0.0
2017-Nov-09 14:58N 46°57' E 031°59'0 0.0
2017-Nov-09 14:28N 46°57' E 031°59'0 0.0
2017-Nov-09 13:58N 46°57' E 031°59'0 0.0
2017-Nov-09 13:28N 46°57' E 031°59'0 0.0
2017-Nov-09 12:58N 46°57' E 031°59'0 0.0
2017-Nov-09 12:28N 46°57' E 031°59'0 0.0
2017-Nov-09 11:58N 46°57' E 031°59'0 0.0
2017-Nov-09 11:28N 46°57' E 031°59'0 0.0
2017-Nov-09 10:55N 46°57' E 031°59'0 0.0
2017-Nov-09 10:28N 46°57' E 031°59'0 0.0
2017-Nov-09 09:58N 46°57' E 031°59'0 0.0
2017-Nov-09 09:28N 46°57' E 031°59'0 0.0
2017-Nov-09 08:58N 46°57' E 031°59'0 0.0
2017-Nov-09 08:28N 46°57' E 031°59'0 0.0
2017-Nov-09 07:58N 46°57' E 031°59'0 0.0
2017-Nov-09 07:28N 46°57' E 031°59'0 0.0
2017-Nov-09 06:58N 46°57' E 031°59'0 0.0
2017-Nov-09 06:28N 46°57' E 031°59'0 0.0
2017-Nov-09 05:58N 46°57' E 031°59'0 0.0
2017-Nov-09 05:28N 46°57' E 031°59'0 0.0
2017-Nov-09 04:58N 46°57' E 031°59'0 0.0
2017-Nov-09 04:28N 46°57' E 031°59'0 0.0
2017-Nov-09 03:58N 46°57' E 031°59'0 0.0
2017-Nov-09 03:28N 46°57' E 031°59'0 0.0
2017-Nov-09 02:58N 46°57' E 031°59'0 0.0
2017-Nov-09 02:28N 46°57' E 031°59'0 0.0
2017-Nov-09 01:58N 46°57' E 031°59'0 0.0
2017-Nov-09 01:28N 46°57' E 031°59'0 0.0
2017-Nov-09 00:55N 46°57' E 031°59'0 0.0
2017-Nov-09 00:28N 46°57' E 031°59'0 0.0
2017-Nov-08 23:58N 46°57' E 031°59'0 0.0
2017-Nov-08 23:28N 46°57' E 031°59'0 0.0
2017-Nov-08 22:58N 46°57' E 031°59'0 0.0
2017-Nov-08 22:28N 46°57' E 031°59'0 0.0
2017-Nov-08 21:58N 46°57' E 031°59'0 0.0
2017-Nov-08 21:28N 46°57' E 031°59'0 0.0
2017-Nov-08 20:58N 46°57' E 031°59'0 0.0
2017-Nov-08 20:28N 46°57' E 031°59'0 0.0
2017-Nov-08 19:58N 46°57' E 031°59'0 0.0
2017-Nov-08 19:28N 46°57' E 031°59'0 0.0
2017-Nov-08 18:58N 46°57' E 031°59'0 0.0
2017-Nov-08 18:28N 46°57' E 031°59'0 0.0
2017-Nov-08 17:58N 46°57' E 031°59'0 0.0
2017-Nov-08 17:28N 46°57' E 031°59'0 0.0
2017-Nov-08 16:58N 46°57' E 031°59'0 0.0
2017-Nov-08 16:28N 46°57' E 031°59'0 0.0
2017-Nov-08 15:58N 46°57' E 031°59'0 0.0
2017-Nov-08 15:28N 46°57' E 031°59'0 0.0
2017-Nov-08 14:58N 46°57' E 031°59'0 0.0
2017-Nov-08 14:28N 46°57' E 031°59'0 0.0
2017-Nov-08 13:58N 46°57' E 031°59'0 0.0
2017-Nov-08 13:28N 46°57' E 031°59'0 0.0
2017-Nov-08 12:58N 46°57' E 031°59'0 0.0
2017-Nov-08 12:28N 46°57' E 031°59'0 0.0
2017-Nov-08 11:58N 46°57' E 031°59'0 0.0
2017-Nov-08 11:28N 46°57' E 031°59'0 0.0
2017-Nov-08 10:58N 46°57' E 031°59'0 0.0
2017-Nov-08 10:28N 46°57' E 031°59'0 0.0
2017-Nov-08 09:58N 46°57' E 031°59'0 0.0
2017-Nov-08 09:28N 46°57' E 031°59'0 0.0
2017-Nov-08 08:58N 46°57' E 031°59'0 0.0
2017-Nov-08 08:28N 46°57' E 031°59'0 0.0
2017-Nov-08 07:55N 46°57' E 031°59'0 0.0
2017-Nov-08 07:28N 46°57' E 031°59'0 0.0
2017-Nov-08 06:58N 46°57' E 031°59'0 0.0
2017-Nov-08 06:28N 46°57' E 031°59'0 0.0
2017-Nov-08 05:58N 46°57' E 031°59'0 0.0
2017-Nov-08 05:28N 46°57' E 031°59'0 0.0
2017-Nov-08 04:58N 46°57' E 031°59'0 0.0
2017-Nov-08 04:28N 46°57' E 031°59'0 0.0
2017-Nov-08 03:58N 46°57' E 031°59'0 0.0
2017-Nov-08 03:28N 46°57' E 031°59'0 0.0
2017-Nov-08 02:58N 46°57' E 031°59'0 0.0
2017-Nov-08 02:28N 46°57' E 031°59'0 0.0
2017-Nov-08 01:58N 46°57' E 031°59'0 0.0
2017-Nov-08 01:28N 46°57' E 031°59'0 0.0
2017-Nov-08 00:58N 46°57' E 031°59'0 0.0
2017-Nov-08 00:28N 46°57' E 031°59'0 0.0
2017-Nov-07 23:58N 46°57' E 031°59'0 0.0
2017-Nov-07 23:28N 46°57' E 031°59'0 0.0
2017-Nov-07 22:58N 46°57' E 031°59'0 0.0
2017-Nov-07 22:28N 46°57' E 031°59'0 0.0
2017-Nov-07 21:58N 46°57' E 031°59'0 0.0
2017-Nov-07 21:28N 46°57' E 031°59'0 0.0
2017-Nov-07 20:58N 46°57' E 031°59'0 0.0
2017-Nov-07 20:28N 46°57' E 031°59'0 0.0
2017-Nov-07 19:58N 46°57' E 031°59'0 0.0
2017-Nov-07 19:28N 46°57' E 031°59'0 0.0
2017-Nov-07 18:58N 46°57' E 031°59'0 0.0
2017-Nov-07 18:28N 46°57' E 031°59'0 0.0
2017-Nov-07 17:58N 46°57' E 031°59'0 0.0
2017-Nov-07 17:28N 46°57' E 031°59'0 0.0
2017-Nov-07 16:55N 46°57' E 031°59'0 0.0
2017-Nov-07 16:28N 46°57' E 031°59'0 0.0
2017-Nov-07 15:58N 46°57' E 031°59'0 0.0
2017-Nov-07 15:25N 46°57' E 031°59'0 0.0
2017-Nov-07 14:58N 46°57' E 031°59'0 0.0
2017-Nov-07 14:28N 46°57' E 031°59'0 0.0
2017-Nov-07 13:58N 46°57' E 031°59'0 0.0
2017-Nov-07 13:28N 46°57' E 031°59'0 0.0
2017-Nov-07 12:58N 46°57' E 031°59'0 0.0
2017-Nov-07 12:28N 46°57' E 031°59'0 0.0
2017-Nov-07 11:58N 46°57' E 031°59'0 0.0
2017-Nov-07 11:22N 46°57' E 031°59'0 0.0
2017-Nov-07 10:58N 46°57' E 031°59'0 0.0
2017-Nov-07 10:28N 46°57' E 031°59'0 0.0
2017-Nov-07 09:58N 46°57' E 031°59'0 0.0
2017-Nov-07 09:28N 46°57' E 031°59'0 0.0
2017-Nov-07 08:58N 46°57' E 031°59'0 0.0
2017-Nov-07 08:28N 46°57' E 031°59'0 0.0
2017-Nov-07 07:58N 46°57' E 031°59'0 0.0
2017-Nov-07 07:28N 46°57' E 031°59'0 0.0
2017-Nov-07 06:58N 46°57' E 031°59'0 0.0
2017-Nov-07 06:28N 46°57' E 031°59'0 0.0
2017-Nov-07 05:58N 46°57' E 031°59'0 0.0
2017-Nov-07 05:28N 46°57' E 031°59'0 0.0
2017-Nov-07 04:58N 46°57' E 031°59'0 0.0
2017-Nov-07 04:28N 46°57' E 031°59'0 0.0
2017-Nov-07 03:58N 46°57' E 031°59'0 0.0
2017-Nov-07 03:28N 46°57' E 031°59'0 0.0
2017-Nov-07 02:58N 46°57' E 031°59'0 0.0
2017-Nov-07 02:28N 46°57' E 031°59'0 0.0
2017-Nov-07 01:58N 46°57' E 031°59'0 0.0
2017-Nov-07 01:28N 46°57' E 031°59'0 0.0
2017-Nov-07 00:58N 46°57' E 031°59'0 0.0
2017-Nov-07 00:28N 46°57' E 031°59'0 0.0
2017-Nov-06 23:58N 46°57' E 031°59'0 0.0
2017-Nov-06 23:28N 46°57' E 031°59'0 0.0
2017-Nov-06 22:58N 46°57' E 031°59'0 0.0
2017-Nov-06 22:28N 46°57' E 031°59'0 0.0
2017-Nov-06 21:58N 46°57' E 031°59'0 0.0
2017-Nov-06 21:28N 46°57' E 031°59'0 0.0
2017-Nov-06 20:58N 46°57' E 031°59'0 0.0
2017-Nov-06 20:28N 46°57' E 031°59'0 0.0
2017-Nov-06 02:28N 46°57' E 031°59'0 0.0
2017-Nov-06 01:58N 46°57' E 031°59'0 0.0
2017-Nov-06 01:28N 46°57' E 031°59'0 0.0
2017-Nov-06 00:58N 46°57' E 031°59'0 0.0
2017-Nov-06 00:28N 46°57' E 031°59'0 0.0
2017-Nov-05 23:58N 46°57' E 031°59'0 0.0
2017-Nov-05 23:28N 46°57' E 031°59'0 0.0
2017-Nov-05 22:58N 46°57' E 031°59'0 0.0
2017-Nov-05 22:28N 46°57' E 031°59'0 0.0
2017-Nov-05 21:58N 46°57' E 031°59'0 0.0
2017-Nov-05 21:28N 46°57' E 031°59'0 0.0
2017-Nov-05 20:58N 46°57' E 031°59'0 0.0
2017-Nov-05 20:28N 46°57' E 031°59'0 0.0
2017-Nov-05 19:58N 46°57' E 031°59'0 0.0
2017-Nov-05 19:28N 46°57' E 031°59'0 0.0
2017-Nov-05 18:58N 46°57' E 031°59'0 0.0
2017-Nov-05 18:28N 46°57' E 031°59'0 0.0
2017-Nov-05 17:58N 46°57' E 031°59'0 0.0
2017-Nov-05 17:28N 46°57' E 031°59'0 0.0
2017-Nov-05 16:58N 46°57' E 031°59'0 0.0
2017-Nov-05 16:28N 46°57' E 031°59'0 0.0
2017-Nov-05 15:58N 46°57' E 031°59'0 0.0
2017-Nov-05 15:28N 46°57' E 031°59'0 0.0
2017-Nov-05 14:58N 46°57' E 031°59'0 0.0
2017-Nov-05 14:28N 46°57' E 031°59'0 0.0
2017-Nov-05 13:58N 46°57' E 031°59'0 0.0
2017-Nov-05 13:25N 46°57' E 031°59'0 0.0
2017-Nov-05 12:28N 46°57' E 031°59'  

Dump ship's entire track history